sensor_id;sensor_type;location;lat;lon;timestamp;temperature;humidity
65207;SHT31;58477;48.072;11.970;2023-03-31T00:01:11;6.81;94.02
65207;SHT31;58477;48.072;11.970;2023-03-31T00:03:37;6.75;93.46
65207;SHT31;58477;48.072;11.970;2023-03-31T00:06:09;6.65;94.22
65207;SHT31;58477;48.072;11.970;2023-03-31T00:08:35;6.64;93.47
65207;SHT31;58477;48.072;11.970;2023-03-31T00:11:03;6.61;93.87
65207;SHT31;58477;48.072;11.970;2023-03-31T00:13:29;6.47;94.08
65207;SHT31;58477;48.072;11.970;2023-03-31T00:15:57;6.33;94.25
65207;SHT31;58477;48.072;11.970;2023-03-31T00:18:23;6.17;94.98
65207;SHT31;58477;48.072;11.970;2023-03-31T00:20:52;6.02;95.03
65207;SHT31;58477;48.072;11.970;2023-03-31T00:23:18;5.97;95.82
65207;SHT31;58477;48.072;11.970;2023-03-31T00:25:53;6.23;96.25
65207;SHT31;58477;48.072;11.970;2023-03-31T00:28:19;6.33;95.81
65207;SHT31;58477;48.072;11.970;2023-03-31T00:30:45;6.10;95.57
65207;SHT31;58477;48.072;11.970;2023-03-31T00:33:12;6.09;96.14
65207;SHT31;58477;48.072;11.970;2023-03-31T00:35:38;6.05;96.32
65207;SHT31;58477;48.072;11.970;2023-03-31T00:38:05;6.11;96.38
65207;SHT31;58477;48.072;11.970;2023-03-31T00:40:36;6.17;96.13
65207;SHT31;58477;48.072;11.970;2023-03-31T00:43:31;6.13;96.46
65207;SHT31;58477;48.072;11.970;2023-03-31T00:46:14;6.02;96.69
65207;SHT31;58477;48.072;11.970;2023-03-31T00:48:54;6.19;96.57
65207;SHT31;58477;48.072;11.970;2023-03-31T00:51:27;6.26;96.31
65207;SHT31;58477;48.072;11.970;2023-03-31T00:53:56;6.27;96.10
65207;SHT31;58477;48.072;11.970;2023-03-31T00:56:33;6.30;96.23
65207;SHT31;58477;48.072;11.970;2023-03-31T00:59:03;6.40;95.84
65207;SHT31;58477;48.072;11.970;2023-03-31T01:01:32;6.30;96.01
65207;SHT31;58477;48.072;11.970;2023-03-31T01:04:01;6.33;96.30
65207;SHT31;58477;48.072;11.970;2023-03-31T01:06:27;6.48;96.24
65207;SHT31;58477;48.072;11.970;2023-03-31T01:08:55;6.53;96.07
65207;SHT31;58477;48.072;11.970;2023-03-31T01:11:24;6.61;95.65
65207;SHT31;58477;48.072;11.970;2023-03-31T01:13:51;6.61;95.62
65207;SHT31;58477;48.072;11.970;2023-03-31T01:16:20;6.77;95.22
65207;SHT31;58477;48.072;11.970;2023-03-31T01:18:45;6.71;95.36
65207;SHT31;58477;48.072;11.970;2023-03-31T01:30:45;6.54;95.82
65207;SHT31;58477;48.072;11.970;2023-03-31T01:42:43;6.47;95.87
65207;SHT31;58477;48.072;11.970;2023-03-31T01:45:41;6.47;95.65
65207;SHT31;58477;48.072;11.970;2023-03-31T01:48:16;6.40;95.89
65207;SHT31;58477;48.072;11.970;2023-03-31T01:51:01;6.38;95.84
65207;SHT31;58477;48.072;11.970;2023-03-31T01:53:35;6.36;95.71
65207;SHT31;58477;48.072;11.970;2023-03-31T01:59:10;6.14;96.00
65207;SHT31;58477;48.072;11.970;2023-03-31T02:01:41;6.05;95.61
65207;SHT31;58477;48.072;11.970;2023-03-31T02:04:32;6.07;96.34
65207;SHT31;58477;48.072;11.970;2023-03-31T02:07:02;6.09;96.30
65207;SHT31;58477;48.072;11.970;2023-03-31T02:09:34;5.92;96.63
65207;SHT31;58477;48.072;11.970;2023-03-31T02:12:03;5.89;96.83
65207;SHT31;58477;48.072;11.970;2023-03-31T02:14:31;6.06;96.91
65207;SHT31;58477;48.072;11.970;2023-03-31T02:16:58;6.03;96.61
65207;SHT31;58477;48.072;11.970;2023-03-31T02:19:39;6.00;96.76
65207;SHT31;58477;48.072;11.970;2023-03-31T02:22:07;6.06;96.86
65207;SHT31;58477;48.072;11.970;2023-03-31T02:24:35;6.05;96.63
65207;SHT31;58477;48.072;11.970;2023-03-31T02:29:39;6.14;96.68
65207;SHT31;58477;48.072;11.970;2023-03-31T02:32:29;6.14;96.77
65207;SHT31;58477;48.072;11.970;2023-03-31T02:34:58;6.05;96.61
65207;SHT31;58477;48.072;11.970;2023-03-31T02:37:24;6.05;96.81
65207;SHT31;58477;48.072;11.970;2023-03-31T02:39:51;6.13;96.84
65207;SHT31;58477;48.072;11.970;2023-03-31T02:42:18;6.16;96.16
65207;SHT31;58477;48.072;11.970;2023-03-31T02:44:44;6.16;96.70
65207;SHT31;58477;48.072;11.970;2023-03-31T02:47:14;6.13;96.67
65207;SHT31;58477;48.072;11.970;2023-03-31T02:49:47;6.14;96.71
65207;SHT31;58477;48.072;11.970;2023-03-31T02:52:54;6.27;96.49
65207;SHT31;58477;48.072;11.970;2023-03-31T02:55:42;6.19;96.75
65207;SHT31;58477;48.072;11.970;2023-03-31T03:12:02;6.30;96.96
65207;SHT31;58477;48.072;11.970;2023-03-31T03:14:51;6.26;97.11
65207;SHT31;58477;48.072;11.970;2023-03-31T03:17:31;6.19;97.59
65207;SHT31;58477;48.072;11.970;2023-03-31T03:20:00;6.27;97.15
65207;SHT31;58477;48.072;11.970;2023-03-31T03:22:26;6.34;97.28
65207;SHT31;58477;48.072;11.970;2023-03-31T03:24:52;6.40;96.81
65207;SHT31;58477;48.072;11.970;2023-03-31T03:27:18;6.45;96.67
65207;SHT31;58477;48.072;11.970;2023-03-31T03:29:46;6.41;96.80
65207;SHT31;58477;48.072;11.970;2023-03-31T03:32:12;6.54;96.74
65207;SHT31;58477;48.072;11.970;2023-03-31T03:34:38;6.70;96.06
65207;SHT31;58477;48.072;11.970;2023-03-31T03:37:03;6.70;95.83
65207;SHT31;58477;48.072;11.970;2023-03-31T03:39:28;6.65;96.41
65207;SHT31;58477;48.072;11.970;2023-03-31T03:41:54;6.60;96.53
65207;SHT31;58477;48.072;11.970;2023-03-31T03:44:19;6.63;96.91
65207;SHT31;58477;48.072;11.970;2023-03-31T03:46:45;6.70;96.69
65207;SHT31;58477;48.072;11.970;2023-03-31T03:49:10;6.58;97.02
65207;SHT31;58477;48.072;11.970;2023-03-31T03:51:36;6.61;97.15
65207;SHT31;58477;48.072;11.970;2023-03-31T03:54:01;6.70;96.90
65207;SHT31;58477;48.072;11.970;2023-03-31T03:56:27;6.58;97.48
65207;SHT31;58477;48.072;11.970;2023-03-31T03:58:52;6.54;97.60
65207;SHT31;58477;48.072;11.970;2023-03-31T04:04:27;6.63;97.58
65207;SHT31;58477;48.072;11.970;2023-03-31T04:06:53;6.63;97.57
65207;SHT31;58477;48.072;11.970;2023-03-31T04:09:18;6.57;97.68
65207;SHT31;58477;48.072;11.970;2023-03-31T04:11:43;6.57;97.81
65207;SHT31;58477;48.072;11.970;2023-03-31T04:14:09;6.64;97.62
65207;SHT31;58477;48.072;11.970;2023-03-31T04:16:34;6.70;97.82
65207;SHT31;58477;48.072;11.970;2023-03-31T04:19:00;6.83;97.53
65207;SHT31;58477;48.072;11.970;2023-03-31T04:21:28;6.87;97.57
65207;SHT31;58477;48.072;11.970;2023-03-31T04:23:58;6.95;97.68
65207;SHT31;58477;48.072;11.970;2023-03-31T04:26:28;7.01;97.41
65207;SHT31;58477;48.072;11.970;2023-03-31T04:29:08;6.95;97.44
65207;SHT31;58477;48.072;11.970;2023-03-31T04:31:34;6.91;97.93
65207;SHT31;58477;48.072;11.970;2023-03-31T04:34:04;6.88;98.16
65207;SHT31;58477;48.072;11.970;2023-03-31T04:36:32;6.63;98.94
65207;SHT31;58477;48.072;11.970;2023-03-31T04:38:57;6.58;98.86
65207;SHT31;58477;48.072;11.970;2023-03-31T04:41:24;6.67;98.78
65207;SHT31;58477;48.072;11.970;2023-03-31T04:43:52;6.67;98.58
65207;SHT31;58477;48.072;11.970;2023-03-31T04:46:17;6.58;99.06
65207;SHT31;58477;48.072;11.970;2023-03-31T04:49:01;6.74;98.75
65207;SHT31;58477;48.072;11.970;2023-03-31T04:51:27;6.88;98.50
65207;SHT31;58477;48.072;11.970;2023-03-31T04:53:53;7.01;98.25
65207;SHT31;58477;48.072;11.970;2023-03-31T04:56:19;7.14;97.59
65207;SHT31;58477;48.072;11.970;2023-03-31T04:58:45;7.14;97.33
65207;SHT31;58477;48.072;11.970;2023-03-31T05:01:10;7.15;97.36
65207;SHT31;58477;48.072;11.970;2023-03-31T05:03:42;7.16;97.47
65207;SHT31;58477;48.072;11.970;2023-03-31T05:06:07;7.18;97.46
65207;SHT31;58477;48.072;11.970;2023-03-31T05:08:33;7.22;97.36
65207;SHT31;58477;48.072;11.970;2023-03-31T05:10:58;7.23;97.41
65207;SHT31;58477;48.072;11.970;2023-03-31T05:13:24;7.19;97.64
65207;SHT31;58477;48.072;11.970;2023-03-31T05:15:50;7.12;97.89
65207;SHT31;58477;48.072;11.970;2023-03-31T05:18:17;7.22;98.22
65207;SHT31;58477;48.072;11.970;2023-03-31T05:20:42;7.02;98.52
65207;SHT31;58477;48.072;11.970;2023-03-31T05:23:08;6.92;99.08
65207;SHT31;58477;48.072;11.970;2023-03-31T05:25:33;6.80;99.13
65207;SHT31;58477;48.072;11.970;2023-03-31T05:27:59;6.92;99.14
65207;SHT31;58477;48.072;11.970;2023-03-31T05:30:25;6.85;99.06
65207;SHT31;58477;48.072;11.970;2023-03-31T05:32:51;6.81;99.44
65207;SHT31;58477;48.072;11.970;2023-03-31T05:35:17;6.77;99.49
65207;SHT31;58477;48.072;11.970;2023-03-31T05:37:43;6.70;99.70
65207;SHT31;58477;48.072;11.970;2023-03-31T05:40:09;6.71;99.99
65207;SHT31;58477;48.072;11.970;2023-03-31T05:42:35;6.71;99.99
65207;SHT31;58477;48.072;11.970;2023-03-31T05:45:01;6.83;99.99
65207;SHT31;58477;48.072;11.970;2023-03-31T05:47:26;6.83;99.95
65207;SHT31;58477;48.072;11.970;2023-03-31T05:49:52;6.88;99.99
65207;SHT31;58477;48.072;11.970;2023-03-31T05:52:17;6.88;99.99
65207;SHT31;58477;48.072;11.970;2023-03-31T05:54:43;6.88;99.99
65207;SHT31;58477;48.072;11.970;2023-03-31T05:57:09;7.06;99.99
65207;SHT31;58477;48.072;11.970;2023-03-31T05:59:34;7.12;99.79
65207;SHT31;58477;48.072;11.970;2023-03-31T06:02:01;7.19;99.32
65207;SHT31;58477;48.072;11.970;2023-03-31T06:04:27;7.25;99.07
65207;SHT31;58477;48.072;11.970;2023-03-31T06:06:52;7.53;98.67
65207;SHT31;58477;48.072;11.970;2023-03-31T06:09:18;7.76;97.80
65207;SHT31;58477;48.072;11.970;2023-03-31T06:11:44;7.87;97.27
65207;SHT31;58477;48.072;11.970;2023-03-31T06:14:10;8.18;97.24
65207;SHT31;58477;48.072;11.970;2023-03-31T06:16:36;8.83;94.10
65207;SHT31;58477;48.072;11.970;2023-03-31T06:19:01;9.18;92.08
65207;SHT31;58477;48.072;11.970;2023-03-31T06:21:26;9.00;92.55
65207;SHT31;58477;48.072;11.970;2023-03-31T06:23:52;8.79;92.89
65207;SHT31;58477;48.072;11.970;2023-03-31T06:26:20;8.72;92.94
65207;SHT31;58477;48.072;11.970;2023-03-31T06:28:47;8.58;93.43
65207;SHT31;58477;48.072;11.970;2023-03-31T06:31:15;8.78;92.41
65207;SHT31;58477;48.072;11.970;2023-03-31T06:33:42;8.75;93.44
65207;SHT31;58477;48.072;11.970;2023-03-31T06:36:08;8.86;91.97
65207;SHT31;58477;48.072;11.970;2023-03-31T06:38:35;8.59;92.61
65207;SHT31;58477;48.072;11.970;2023-03-31T06:41:01;8.45;93.46
65207;SHT31;58477;48.072;11.970;2023-03-31T06:43:27;8.57;93.51
65207;SHT31;58477;48.072;11.970;2023-03-31T06:45:53;8.59;92.65
65207;SHT31;58477;48.072;11.970;2023-03-31T06:48:19;8.62;93.69
65207;SHT31;58477;48.072;11.970;2023-03-31T06:50:46;8.86;92.71
65207;SHT31;58477;48.072;11.970;2023-03-31T06:53:11;8.72;92.58
65207;SHT31;58477;48.072;11.970;2023-03-31T06:55:37;8.54;92.92
65207;SHT31;58477;48.072;11.970;2023-03-31T06:58:03;8.82;92.77
65207;SHT31;58477;48.072;11.970;2023-03-31T07:00:31;9.77;90.86
65207;SHT31;58477;48.072;11.970;2023-03-31T07:02:56;10.71;86.93
65207;SHT31;58477;48.072;11.970;2023-03-31T07:05:22;11.31;85.60
65207;SHT31;58477;48.072;11.970;2023-03-31T07:07:54;10.56;87.87
65207;SHT31;58477;48.072;11.970;2023-03-31T07:10:21;10.53;87.06
65207;SHT31;58477;48.072;11.970;2023-03-31T07:12:47;9.88;89.34
65207;SHT31;58477;48.072;11.970;2023-03-31T07:15:13;9.80;88.28
65207;SHT31;58477;48.072;11.970;2023-03-31T07:17:38;9.76;90.26
65207;SHT31;58477;48.072;11.970;2023-03-31T07:20:16;9.60;88.94
65207;SHT31;58477;48.072;11.970;2023-03-31T07:22:47;9.34;89.28
65207;SHT31;58477;48.072;11.970;2023-03-31T07:25:15;8.79;91.17
65207;SHT31;58477;48.072;11.970;2023-03-31T07:27:42;8.89;91.18
65207;SHT31;58477;48.072;11.970;2023-03-31T07:30:10;8.71;91.74
65207;SHT31;58477;48.072;11.970;2023-03-31T07:32:36;8.45;92.57
65207;SHT31;58477;48.072;11.970;2023-03-31T07:35:06;8.23;93.43
65207;SHT31;58477;48.072;11.970;2023-03-31T07:37:40;8.17;94.34
65207;SHT31;58477;48.072;11.970;2023-03-31T07:40:07;8.11;95.20
65207;SHT31;58477;48.072;11.970;2023-03-31T07:42:33;8.10;95.21
65207;SHT31;58477;48.072;11.970;2023-03-31T07:45:00;8.21;95.31
65207;SHT31;58477;48.072;11.970;2023-03-31T07:47:25;8.18;95.95
65207;SHT31;58477;48.072;11.970;2023-03-31T07:49:52;8.10;96.39
65207;SHT31;58477;48.072;11.970;2023-03-31T07:52:17;8.25;96.73
65207;SHT31;58477;48.072;11.970;2023-03-31T07:54:44;8.08;97.18
65207;SHT31;58477;48.072;11.970;2023-03-31T07:57:10;8.34;96.85
65207;SHT31;58477;48.072;11.970;2023-03-31T07:59:36;8.27;96.39
65207;SHT31;58477;48.072;11.970;2023-03-31T08:02:01;8.37;96.33
65207;SHT31;58477;48.072;11.970;2023-03-31T08:04:26;8.18;96.94
65207;SHT31;58477;48.072;11.970;2023-03-31T08:06:52;8.40;96.06
65207;SHT31;58477;48.072;11.970;2023-03-31T08:09:18;8.40;96.00
65207;SHT31;58477;48.072;11.970;2023-03-31T08:11:44;8.23;97.38
65207;SHT31;58477;48.072;11.970;2023-03-31T08:14:09;8.33;97.09
65207;SHT31;58477;48.072;11.970;2023-03-31T08:16:35;8.44;96.97
65207;SHT31;58477;48.072;11.970;2023-03-31T08:19:00;9.05;96.15
65207;SHT31;58477;48.072;11.970;2023-03-31T08:21:27;9.60;93.46
65207;SHT31;58477;48.072;11.970;2023-03-31T08:23:55;9.26;95.05
65207;SHT31;58477;48.072;11.970;2023-03-31T08:26:21;9.58;93.15
65207;SHT31;58477;48.072;11.970;2023-03-31T08:28:50;9.56;93.73
65207;SHT31;58477;48.072;11.970;2023-03-31T08:31:18;9.47;92.67
65207;SHT31;58477;48.072;11.970;2023-03-31T08:33:45;9.34;93.41
65207;SHT31;58477;48.072;11.970;2023-03-31T08:36:11;9.27;93.45
65207;SHT31;58477;48.072;11.970;2023-03-31T08:38:39;9.26;94.38
65207;SHT31;58477;48.072;11.970;2023-03-31T08:44:06;9.29;94.36
65207;SHT31;58477;48.072;11.970;2023-03-31T08:46:33;9.42;93.61
65207;SHT31;58477;48.072;11.970;2023-03-31T08:49:00;9.54;93.21
65207;SHT31;58477;48.072;11.970;2023-03-31T08:51:36;9.32;93.28
65207;SHT31;58477;48.072;11.970;2023-03-31T08:54:05;9.57;92.81
65207;SHT31;58477;48.072;11.970;2023-03-31T08:56:34;9.48;93.18
65207;SHT31;58477;48.072;11.970;2023-03-31T08:59:03;9.26;93.95
65207;SHT31;58477;48.072;11.970;2023-03-31T09:01:56;9.39;94.64
65207;SHT31;58477;48.072;11.970;2023-03-31T09:04:32;9.32;94.02
65207;SHT31;58477;48.072;11.970;2023-03-31T09:12:16;9.46;94.36
65207;SHT31;58477;48.072;11.970;2023-03-31T09:14:56;9.18;94.48
65207;SHT31;58477;48.072;11.970;2023-03-31T09:17:28;9.00;93.99
65207;SHT31;58477;48.072;11.970;2023-03-31T09:19:58;8.96;95.10
65207;SHT31;58477;48.072;11.970;2023-03-31T09:22:29;8.90;95.77
65207;SHT31;58477;48.072;11.970;2023-03-31T09:25:10;9.03;95.31
65207;SHT31;58477;48.072;11.970;2023-03-31T09:27:39;9.20;95.35
65207;SHT31;58477;48.072;11.970;2023-03-31T09:30:11;9.23;95.17
65207;SHT31;58477;48.072;11.970;2023-03-31T09:32:40;9.50;95.76
65207;SHT31;58477;48.072;11.970;2023-03-31T09:35:20;9.53;92.82
65207;SHT31;58477;48.072;11.970;2023-03-31T09:37:47;9.93;93.17
65207;SHT31;58477;48.072;11.970;2023-03-31T09:40:19;10.11;92.50
65207;SHT31;58477;48.072;11.970;2023-03-31T09:43:00;10.39;92.28
65207;SHT31;58477;48.072;11.970;2023-03-31T09:45:26;10.69;90.48
65207;SHT31;58477;48.072;11.970;2023-03-31T09:48:04;11.99;87.37
65207;SHT31;58477;48.072;11.970;2023-03-31T09:50:35;11.47;86.94
65207;SHT31;58477;48.072;11.970;2023-03-31T09:53:06;12.36;86.24
65207;SHT31;58477;48.072;11.970;2023-03-31T09:55:43;12.22;84.70
65207;SHT31;58477;48.072;11.970;2023-03-31T09:58:15;11.67;85.86
65207;SHT31;58477;48.072;11.970;2023-03-31T10:00:42;12.11;86.31
65207;SHT31;58477;48.072;11.970;2023-03-31T10:03:12;11.97;84.82
65207;SHT31;58477;48.072;11.970;2023-03-31T10:05:47;11.66;87.12
65207;SHT31;58477;48.072;11.970;2023-03-31T10:08:29;11.68;87.77
65207;SHT31;58477;48.072;11.970;2023-03-31T10:13:58;11.66;88.83
65207;SHT31;58477;48.072;11.970;2023-03-31T10:16:47;11.58;89.00
65207;SHT31;58477;48.072;11.970;2023-03-31T10:19:19;11.47;88.63
65207;SHT31;58477;48.072;11.970;2023-03-31T10:21:47;11.33;89.39
65207;SHT31;58477;48.072;11.970;2023-03-31T10:24:17;11.36;89.55
65207;SHT31;58477;48.072;11.970;2023-03-31T10:26:47;11.34;89.05
65207;SHT31;58477;48.072;11.970;2023-03-31T10:29:19;11.47;88.07
65207;SHT31;58477;48.072;11.970;2023-03-31T10:31:46;11.54;86.94
65207;SHT31;58477;48.072;11.970;2023-03-31T10:34:14;11.75;87.32
65207;SHT31;58477;48.072;11.970;2023-03-31T10:36:48;12.04;87.67
65207;SHT31;58477;48.072;11.970;2023-03-31T10:39:15;12.12;85.31
65207;SHT31;58477;48.072;11.970;2023-03-31T10:41:41;12.17;85.33
65207;SHT31;58477;48.072;11.970;2023-03-31T10:47:03;12.60;85.75
65207;SHT31;58477;48.072;11.970;2023-03-31T10:49:29;13.33;85.34
65207;SHT31;58477;48.072;11.970;2023-03-31T10:52:01;13.51;83.37
65207;SHT31;58477;48.072;11.970;2023-03-31T10:54:27;14.04;82.14
65207;SHT31;58477;48.072;11.970;2023-03-31T10:57:00;13.74;82.01
65207;SHT31;58477;48.072;11.970;2023-03-31T11:05:19;13.19;83.05
65207;SHT31;58477;48.072;11.970;2023-03-31T11:13:28;13.04;84.54
65207;SHT31;58477;48.072;11.970;2023-03-31T11:18:35;12.67;84.84
65207;SHT31;58477;48.072;11.970;2023-03-31T11:21:16;12.72;84.42
65207;SHT31;58477;48.072;11.970;2023-03-31T11:26:58;12.49;84.78
65207;SHT31;58477;48.072;11.970;2023-03-31T11:30:27;12.24;85.11
65207;SHT31;58477;48.072;11.970;2023-03-31T11:32:51;11.84;86.23
65207;SHT31;58477;48.072;11.970;2023-03-31T11:38:04;11.38;87.17
65207;SHT31;58477;48.072;11.970;2023-03-31T11:40:54;11.05;88.05
65207;SHT31;58477;48.072;11.970;2023-03-31T11:46:03;9.76;92.88
65207;SHT31;58477;48.072;11.970;2023-03-31T11:51:26;8.34;94.25
65207;SHT31;58477;48.072;11.970;2023-03-31T11:53:55;8.28;94.50
65207;SHT31;58477;48.072;11.970;2023-03-31T11:56:24;8.44;93.30
65207;SHT31;58477;48.072;11.970;2023-03-31T11:58:56;8.51;92.60
65207;SHT31;58477;48.072;11.970;2023-03-31T12:01:41;8.65;91.95
65207;SHT31;58477;48.072;11.970;2023-03-31T12:07:23;8.86;92.58
65207;SHT31;58477;48.072;11.970;2023-03-31T12:10:10;9.08;92.20
65207;SHT31;58477;48.072;11.970;2023-03-31T12:12:41;9.13;91.73
65207;SHT31;58477;48.072;11.970;2023-03-31T12:15:23;9.26;89.94
65207;SHT31;58477;48.072;11.970;2023-03-31T12:17:56;9.34;90.53
65207;SHT31;58477;48.072;11.970;2023-03-31T12:20:30;9.61;91.36
65207;SHT31;58477;48.072;11.970;2023-03-31T12:22:57;9.90;89.74
65207;SHT31;58477;48.072;11.970;2023-03-31T12:25:35;10.01;89.74
65207;SHT31;58477;48.072;11.970;2023-03-31T12:28:04;10.17;90.25
65207;SHT31;58477;48.072;11.970;2023-03-31T12:30:36;10.22;89.55
65207;SHT31;58477;48.072;11.970;2023-03-31T12:33:25;10.25;88.52
65207;SHT31;58477;48.072;11.970;2023-03-31T12:38:56;10.22;88.76
65207;SHT31;58477;48.072;11.970;2023-03-31T12:55:57;10.09;87.45
65207;SHT31;58477;48.072;11.970;2023-03-31T13:01:04;10.17;89.40
65207;SHT31;58477;48.072;11.970;2023-03-31T13:06:02;10.25;88.43
65207;SHT31;58477;48.072;11.970;2023-03-31T13:08:54;10.21;89.83
65207;SHT31;58477;48.072;11.970;2023-03-31T13:11:40;10.34;88.84
65207;SHT31;58477;48.072;11.970;2023-03-31T13:16:39;10.88;88.72
65207;SHT31;58477;48.072;11.970;2023-03-31T13:19:06;10.92;88.34
65207;SHT31;58477;48.072;11.970;2023-03-31T13:21:54;10.86;87.15
65207;SHT31;58477;48.072;11.970;2023-03-31T13:24:24;10.91;87.86
65207;SHT31;58477;48.072;11.970;2023-03-31T13:26:51;10.76;87.09
65207;SHT31;58477;48.072;11.970;2023-03-31T13:29:21;10.63;85.10
65207;SHT31;58477;48.072;11.970;2023-03-31T13:34:40;10.48;79.91
65207;SHT31;58477;48.072;11.970;2023-03-31T13:37:13;10.39;80.23
65207;SHT31;58477;48.072;11.970;2023-03-31T13:48:36;10.02;81.51
65207;SHT31;58477;48.072;11.970;2023-03-31T13:59:57;10.02;81.45
65207;SHT31;58477;48.072;11.970;2023-03-31T14:05:49;10.71;79.26
65207;SHT31;58477;48.072;11.970;2023-03-31T14:11:24;10.45;78.81
65207;SHT31;58477;48.072;11.970;2023-03-31T14:14:14;10.39;78.60
65207;SHT31;58477;48.072;11.970;2023-03-31T14:17:04;10.35;78.73
65207;SHT31;58477;48.072;11.970;2023-03-31T14:22:18;10.15;80.56
65207;SHT31;58477;48.072;11.970;2023-03-31T14:24:49;10.09;80.21
65207;SHT31;58477;48.072;11.970;2023-03-31T14:27:45;9.99;80.42
65207;SHT31;58477;48.072;11.970;2023-03-31T14:36:38;10.08;80.45
65207;SHT31;58477;48.072;11.970;2023-03-31T14:39:09;10.27;80.54
65207;SHT31;58477;48.072;11.970;2023-03-31T14:41:36;10.48;81.31
65207;SHT31;58477;48.072;11.970;2023-03-31T14:44:04;10.66;80.03
65207;SHT31;58477;48.072;11.970;2023-03-31T14:46:31;10.62;79.66
65207;SHT31;58477;48.072;11.970;2023-03-31T14:49:18;10.59;80.40
65207;SHT31;58477;48.072;11.970;2023-03-31T14:51:44;10.42;81.61
65207;SHT31;58477;48.072;11.970;2023-03-31T14:54:18;10.42;81.56
65207;SHT31;58477;48.072;11.970;2023-03-31T14:56:48;10.34;81.02
65207;SHT31;58477;48.072;11.970;2023-03-31T14:59:20;10.44;81.22
65207;SHT31;58477;48.072;11.970;2023-03-31T15:01:47;10.51;79.72
65207;SHT31;58477;48.072;11.970;2023-03-31T15:04:16;10.38;79.49
65207;SHT31;58477;48.072;11.970;2023-03-31T15:06:45;10.38;79.65
65207;SHT31;58477;48.072;11.970;2023-03-31T15:09:32;10.35;75.06
65207;SHT31;58477;48.072;11.970;2023-03-31T15:12:02;10.18;75.68
65207;SHT31;58477;48.072;11.970;2023-03-31T15:14:30;10.07;76.03
65207;SHT31;58477;48.072;11.970;2023-03-31T15:16:58;10.18;74.53
65207;SHT31;58477;48.072;11.970;2023-03-31T15:19:33;10.58;72.81
65207;SHT31;58477;48.072;11.970;2023-03-31T15:22:16;11.26;72.68
65207;SHT31;58477;48.072;11.970;2023-03-31T15:24:45;11.40;71.63
65207;SHT31;58477;48.072;11.970;2023-03-31T15:29:59;11.50;70.10
65207;SHT31;58477;48.072;11.970;2023-03-31T15:32:28;11.51;69.78
65207;SHT31;58477;48.072;11.970;2023-03-31T15:34:54;11.44;71.52
65207;SHT31;58477;48.072;11.970;2023-03-31T15:37:25;11.36;72.42
65207;SHT31;58477;48.072;11.970;2023-03-31T15:39:54;11.41;72.67
65207;SHT31;58477;48.072;11.970;2023-03-31T15:42:20;11.50;74.32
65207;SHT31;58477;48.072;11.970;2023-03-31T15:44:47;11.33;73.20
65207;SHT31;58477;48.072;11.970;2023-03-31T15:47:18;11.10;73.60
65207;SHT31;58477;48.072;11.970;2023-03-31T15:50:01;10.86;74.68
65207;SHT31;58477;48.072;11.970;2023-03-31T15:52:36;10.72;74.67
65207;SHT31;58477;48.072;11.970;2023-03-31T15:57:51;11.15;74.84
65207;SHT31;58477;48.072;11.970;2023-03-31T16:03:04;11.06;73.91
65207;SHT31;58477;48.072;11.970;2023-03-31T16:05:50;11.26;74.27
65207;SHT31;58477;48.072;11.970;2023-03-31T16:08:25;11.30;73.42
65207;SHT31;58477;48.072;11.970;2023-03-31T16:10:58;11.46;73.39
65207;SHT31;58477;48.072;11.970;2023-03-31T16:13:25;11.57;72.70
65207;SHT31;58477;48.072;11.970;2023-03-31T16:15:53;11.68;73.28
65207;SHT31;58477;48.072;11.970;2023-03-31T16:18:29;11.77;73.71
65207;SHT31;58477;48.072;11.970;2023-03-31T16:20:57;11.74;73.54
65207;SHT31;58477;48.072;11.970;2023-03-31T16:23:29;11.84;73.04
65207;SHT31;58477;48.072;11.970;2023-03-31T16:25:55;12.02;72.94
65207;SHT31;58477;48.072;11.970;2023-03-31T16:28:34;11.95;72.96
65207;SHT31;58477;48.072;11.970;2023-03-31T16:31:01;11.95;71.43
65207;SHT31;58477;48.072;11.970;2023-03-31T16:33:28;11.87;73.37
65207;SHT31;58477;48.072;11.970;2023-03-31T16:35:55;11.58;73.05
65207;SHT31;58477;48.072;11.970;2023-03-31T16:38:24;11.44;76.29
65207;SHT31;58477;48.072;11.970;2023-03-31T16:40:53;11.38;76.13
65207;SHT31;58477;48.072;11.970;2023-03-31T16:43:25;11.09;75.62
65207;SHT31;58477;48.072;11.970;2023-03-31T16:45:56;10.91;76.68
65207;SHT31;58477;48.072;11.970;2023-03-31T16:48:23;10.91;75.88
65207;SHT31;58477;48.072;11.970;2023-03-31T16:50:52;10.73;76.57
65207;SHT31;58477;48.072;11.970;2023-03-31T16:53:23;10.69;76.67
65207;SHT31;58477;48.072;11.970;2023-03-31T16:55:50;10.53;76.40
65207;SHT31;58477;48.072;11.970;2023-03-31T16:58:16;10.38;77.35
65207;SHT31;58477;48.072;11.970;2023-03-31T17:00:42;10.24;77.28
65207;SHT31;58477;48.072;11.970;2023-03-31T17:03:09;10.15;77.88
65207;SHT31;58477;48.072;11.970;2023-03-31T17:05:43;10.08;78.18
65207;SHT31;58477;48.072;11.970;2023-03-31T17:08:09;10.11;78.02
65207;SHT31;58477;48.072;11.970;2023-03-31T17:10:36;10.12;77.94
65207;SHT31;58477;48.072;11.970;2023-03-31T17:13:02;10.05;78.44
65207;SHT31;58477;48.072;11.970;2023-03-31T17:15:28;10.05;78.11
65207;SHT31;58477;48.072;11.970;2023-03-31T17:17:55;10.05;78.73
65207;SHT31;58477;48.072;11.970;2023-03-31T17:20:23;10.08;77.69
65207;SHT31;58477;48.072;11.970;2023-03-31T17:22:49;9.46;84.01
65207;SHT31;58477;48.072;11.970;2023-03-31T17:25:14;9.02;83.02
65207;SHT31;58477;48.072;11.970;2023-03-31T17:27:40;8.75;82.76
65207;SHT31;58477;48.072;11.970;2023-03-31T17:30:06;8.52;83.77
65207;SHT31;58477;48.072;11.970;2023-03-31T17:32:33;8.35;84.12
65207;SHT31;58477;48.072;11.970;2023-03-31T17:34:58;8.23;84.56
65207;SHT31;58477;48.072;11.970;2023-03-31T17:37:23;8.18;84.50
65207;SHT31;58477;48.072;11.970;2023-03-31T17:39:49;8.11;84.95
65207;SHT31;58477;48.072;11.970;2023-03-31T17:42:15;8.08;85.00
65207;SHT31;58477;48.072;11.970;2023-03-31T17:44:41;8.00;85.14
65207;SHT31;58477;48.072;11.970;2023-03-31T17:47:07;7.91;85.51
65207;SHT31;58477;48.072;11.970;2023-03-31T17:49:32;7.90;85.28
65207;SHT31;58477;48.072;11.970;2023-03-31T17:51:58;7.91;84.94
65207;SHT31;58477;48.072;11.970;2023-03-31T17:54:24;7.91;85.34
65207;SHT31;58477;48.072;11.970;2023-03-31T17:56:51;7.87;85.68
65207;SHT31;58477;48.072;11.970;2023-03-31T17:59:17;7.83;85.73
65207;SHT31;58477;48.072;11.970;2023-03-31T18:01:43;7.82;85.36
65207;SHT31;58477;48.072;11.970;2023-03-31T18:04:09;7.76;85.81
65207;SHT31;58477;48.072;11.970;2023-03-31T18:06:34;7.77;85.54
65207;SHT31;58477;48.072;11.970;2023-03-31T18:09:00;7.70;85.47
65207;SHT31;58477;48.072;11.970;2023-03-31T18:11:26;7.76;85.56
65207;SHT31;58477;48.072;11.970;2023-03-31T18:13:52;7.77;84.73
65207;SHT31;58477;48.072;11.970;2023-03-31T18:16:18;7.83;85.24